LTBH Airport Information

Runway Information
Runway 04 Length 5905 ft width 98 ft
Elevation 12 ft Threshold 0 ft Heading 41
Runway 22 Length 5905 ft Width 98 ft
Elevation 21 ft Threshold 0 ft Heading 221
Airport Frequencies
Type APP Name YESILKOY A Frequency 122.1 MHZ
Type TWR Name TWR Frequency 123.6 MHZ
Airport Navaids
Type VOR-DME Name Canakkale Frequency 111200 KHZ
Type NDB Name Canakkale Frequency 422 KHZ
Airport Weather Information & NOTAM
ADDS - METARS form results

(2118 UTC 23 October 2018)
Data provider http://aviationweather.gov/metar/data/
 
METAR text: LTBH 232050Z VRB01KT 9999 SCT035 15/14 Q1013
Conditions at: LTBH (CANAKKALE , TR) observed 2050 UTC 23 October 2018
Temperature: 15.0°C (59°F)
Dewpoint: 14.0°C (57°F) [RH = 94%]
Pressure (altimeter): 29.91 inches Hg (1013.0 mb)
Winds: variable direction winds at 1 MPH (1 knots; 0.5 m/s)
Visibility: 6 or more miles (10+ km)
Ceiling: at least 12,000 feet AGL
Clouds: scattered clouds at 3500 feet AGL
Weather: no significant weather observed at this time

Forecast for: LTBH (CANAKKALE , TR)
Text: TAF LTBH 231940Z 2321/2406 04005KT 9999 SCT035
Forecast period: 2100 UTC 23 October 2018 to 0600 UTC 24 October 2018
Forecast type: FROM: standard forecast or significant change
Winds: from the NE (40 degrees) at 6 MPH (5 knots; 2.6 m/s)
Visibility: 6 or more miles 10+ km)
Ceiling: at least 12,000 feet AGL
Clouds: scattered clouds at 3500 feet AGL
Weather: no significant weather forecast for this period